Time;durP1;ratioP1;P1;durP2;ratioP2;P2;SDS_P1;SDS_P2;PMS_P1;PMS_P2;Temp;Humidity;BMP_temperature;BMP_pressure;BME280_temperature;BME280_humidity;BME280_pressure;Samples;Min_cycle;Max_cycle;Signal;HPM_P1;HPM_P2
2023/02/23 00:01:24;;;;;;;28.33;18.27;;;;;;;;;;5052020;28;20021;-77
2023/02/23 00:03:51;;;;;;;30.35;18.85;;;;;;;;;;5052120;28;20040;-77
2023/02/23 00:06:18;;;;;;;27.27;17.08;;;;;;;;;;5050200;28;20033;-77
2023/02/23 00:08:46;;;;;;;27.15;18.33;;;;;;;;;;5050700;28;20027;-79
2023/02/23 00:11:13;;;;;;;27.90;18.35;;;;;;;;;;5051239;28;20029;-77
2023/02/23 00:13:39;;;;;;;25.75;18.08;;;;;;;;;;5050063;28;20029;-77
2023/02/23 00:16:11;;;;;;;26.35;17.38;;;;;;;;;;5051511;28;20040;-74
2023/02/23 00:18:43;;;;;;;24.60;17.33;;;;;;;;;;5050630;28;20017;-77
2023/02/23 00:21:13;;;;;;;28.38;18.67;;;;;;;;;;5051219;28;20104;-77
2023/02/23 00:23:40;;;;;;;25.60;17.60;;;;;;;;;;5051575;28;20170;-77
2023/02/23 00:26:06;;;;;;;24.70;17.13;;;;;;;;;;5051395;28;20039;-77
2023/02/23 00:28:32;;;;;;;26.35;16.70;;;;;;;;;;5050783;28;20060;-77
2023/02/23 00:31:01;;;;;;;26.70;17.70;;;;;;;;;;5051092;28;20025;-78
2023/02/23 00:33:29;;;;;;;27.50;17.65;;;;;;;;;;5051090;28;20545;-78
2023/02/23 00:35:55;;;;;;;25.58;17.20;;;;;;;;;;5051019;28;20141;-77
2023/02/23 00:38:21;;;;;;;25.50;17.20;;;;;;;;;;5050202;28;20173;-76
2023/02/23 00:40:47;;;;;;;27.92;17.02;;;;;;;;;;5049614;28;20024;-76
2023/02/23 00:43:14;;;;;;;31.52;18.55;;;;;;;;;;5049771;28;20392;-77
2023/02/23 00:45:40;;;;;;;28.85;17.80;;;;;;;;;;5051180;28;20064;-76
2023/02/23 00:48:09;;;;;;;25.23;17.27;;;;;;;;;;5050320;28;20025;-76
2023/02/23 00:50:37;;;;;;;30.10;16.60;;;;;;;;;;5050859;28;20564;-75
2023/02/23 00:53:04;;;;;;;25.80;17.60;;;;;;;;;;5051124;28;20029;-75
2023/02/23 00:55:30;;;;;;;32.35;18.23;;;;;;;;;;5062990;28;20031;-76
2023/02/23 00:57:57;;;;;;;25.75;17.40;;;;;;;;;;5063631;28;20017;-77
2023/02/23 01:00:24;;;;;;;25.40;16.80;;;;;;;;;;5063567;28;20077;-76
2023/02/23 01:02:50;;;;;;;25.35;16.23;;;;;;;;;;5055379;28;20129;-77
2023/02/23 01:05:16;;;;;;;24.92;16.63;;;;;;;;;;5050912;28;20105;-77
2023/02/23 01:07:45;;;;;;;25.30;17.27;;;;;;;;;;5089130;22;20076;-75
2023/02/23 01:10:18;;;;;;;26.10;17.45;;;;;;;;;;5070890;28;20031;-76
2023/02/23 01:12:51;;;;;;;23.48;16.35;;;;;;;;;;5070719;28;20086;-75
2023/02/23 01:15:17;;;;;;;25.05;16.70;;;;;;;;;;5070970;28;20027;-74
2023/02/23 01:17:44;;;;;;;25.65;16.73;;;;;;;;;;5070356;28;20101;-75
2023/02/23 01:20:18;;;;;;;27.95;17.30;;;;;;;;;;5069617;28;20043;-75
2023/02/23 01:22:53;;;;;;;26.45;17.25;;;;;;;;;;5070767;28;20028;-74
2023/02/23 01:25:19;;;;;;;25.05;18.27;;;;;;;;;;5070862;28;20454;-74
2023/02/23 01:27:47;;;;;;;28.90;17.67;;;;;;;;;;5070026;28;20429;-74
2023/02/23 01:30:15;;;;;;;26.50;18.00;;;;;;;;;;5070620;28;20052;-74
2023/02/23 01:32:41;;;;;;;26.40;17.73;;;;;;;;;;5071655;28;20024;-75
2023/02/23 01:35:08;;;;;;;25.17;16.80;;;;;;;;;;5074304;28;20023;-75
2023/02/23 01:37:34;;;;;;;28.83;18.52;;;;;;;;;;5073837;28;20039;-75
2023/02/23 01:40:08;;;;;;;29.38;18.52;;;;;;;;;;5074493;28;20027;-75
2023/02/23 01:42:37;;;;;;;32.83;19.05;;;;;;;;;;5073926;28;20055;-75
2023/02/23 01:45:17;;;;;;;28.85;19.23;;;;;;;;;;5074207;28;20052;-76
2023/02/23 01:47:43;;;;;;;27.23;18.17;;;;;;;;;;5072929;28;20039;-76
2023/02/23 01:50:10;;;;;;;27.90;18.77;;;;;;;;;;5074465;28;20270;-75
2023/02/23 01:52:38;;;;;;;27.60;18.65;;;;;;;;;;5072807;28;20291;-76
2023/02/23 01:55:05;;;;;;;30.00;18.95;;;;;;;;;;5074024;28;20394;-75
2023/02/23 01:57:31;;;;;;;31.83;20.52;;;;;;;;;;5073223;28;20024;-75
2023/02/23 01:59:57;;;;;;;29.08;17.92;;;;;;;;;;5074890;28;20032;-75
2023/02/23 02:02:32;;;;;;;24.98;18.00;;;;;;;;;;5073420;28;20413;-76
2023/02/23 02:04:58;;;;;;;30.85;18.80;;;;;;;;;;5074786;28;20017;-75
2023/02/23 02:07:29;;;;;;;30.40;17.73;;;;;;;;;;5071623;28;20071;-76
2023/02/23 02:12:43;;;;;;;30.33;19.40;;;;;;;;;;5073584;28;20025;-75
2023/02/23 02:15:16;;;;;;;27.90;18.33;;;;;;;;;;5072264;28;20098;-73
2023/02/23 02:17:47;;;;;;;28.92;19.27;;;;;;;;;;5072969;28;20082;-75
2023/02/23 02:20:31;;;;;;;30.48;19.25;;;;;;;;;;5072104;28;20051;-75
2023/02/23 02:22:57;;;;;;;30.38;18.90;;;;;;;;;;5073753;28;20016;-78
2023/02/23 02:25:26;;;;;;;26.05;18.80;;;;;;;;;;5073470;28;20074;-76
2023/02/23 02:28:10;;;;;;;28.23;19.70;;;;;;;;;;5071323;28;20150;-76
2023/02/23 02:30:49;;;;;;;27.73;18.63;;;;;;;;;;5073256;28;20597;-76
2023/02/23 02:33:34;;;;;;;28.65;18.85;;;;;;;;;;5071849;28;20376;-76
2023/02/23 02:36:18;;;;;;;31.00;18.92;;;;;;;;;;5073188;28;20031;-75
2023/02/23 02:38:52;;;;;;;30.98;19.52;;;;;;;;;;5070925;28;20498;-75
2023/02/23 02:41:22;;;;;;;32.50;18.92;;;;;;;;;;5073189;28;20453;-75
2023/02/23 02:43:55;;;;;;;27.95;18.27;;;;;;;;;;5072721;28;20043;-75
2023/02/23 02:46:24;;;;;;;28.63;18.55;;;;;;;;;;5071905;28;20047;-75
2023/02/23 02:49:05;;;;;;;30.73;17.75;;;;;;;;;;5070849;28;20368;-75
2023/02/23 02:51:33;;;;;;;;;;;;;;;;;;5073755;28;20031;-75
2023/02/23 02:54:05;;;;;;;29.40;18.08;;;;;;;;;;5073285;28;19908;-76
2023/02/23 02:56:38;;;;;;;29.58;18.77;;;;;;;;;;5072942;28;20403;-75
2023/02/23 04:18:24;;;;;;;26.90;17.00;;;;;;;;;;5094017;28;20068;-74
2023/02/23 04:20:50;;;;;;;28.52;18.38;;;;;;;;;;5091649;28;20050;-76
2023/02/23 04:23:16;;;;;;;24.35;16.65;;;;;;;;;;5077380;28;20024;-76
2023/02/23 04:25:42;;;;;;;30.80;18.55;;;;;;;;;;5084578;28;20021;-76
2023/02/23 04:28:08;;;;;;;25.67;18.38;;;;;;;;;;5077354;28;20036;-76
2023/02/23 04:30:34;;;;;;;30.17;19.95;;;;;;;;;;5088987;28;20024;-76
2023/02/23 04:33:00;;;;;;;28.52;18.08;;;;;;;;;;5091800;28;20028;-76
2023/02/23 04:35:27;;;;;;;28.73;17.95;;;;;;;;;;5085377;28;20120;-76
2023/02/23 04:37:53;;;;;;;29.30;18.75;;;;;;;;;;5087265;28;20051;-77
2023/02/23 04:40:19;;;;;;;32.22;19.17;;;;;;;;;;5094799;28;20013;-77
2023/02/23 04:42:45;;;;;;;28.70;18.73;;;;;;;;;;5074123;28;20025;-76
2023/02/23 04:45:11;;;;;;;30.90;19.27;;;;;;;;;;5073813;28;20029;-77
2023/02/23 04:47:37;;;;;;;28.40;19.63;;;;;;;;;;5071115;28;20048;-77
2023/02/23 04:50:04;;;;;;;26.85;18.30;;;;;;;;;;5072943;28;20427;-76
2023/02/23 04:52:30;;;;;;;30.00;18.83;;;;;;;;;;5075341;28;20458;-76
2023/02/23 04:54:56;;;;;;;30.48;18.63;;;;;;;;;;5088608;28;20009;-77
2023/02/23 04:57:22;;;;;;;31.80;20.02;;;;;;;;;;5089457;28;20021;-77
2023/02/23 04:59:48;;;;;;;29.90;19.42;;;;;;;;;;5089960;28;20025;-77
2023/02/23 05:02:14;;;;;;;32.25;20.52;;;;;;;;;;5088637;28;20020;-76
2023/02/23 05:04:40;;;;;;;33.10;20.05;;;;;;;;;;5088074;28;20075;-76
2023/02/23 05:07:06;;;;;;;30.65;20.48;;;;;;;;;;5088281;28;20135;-74
2023/02/23 05:09:33;;;;;;;30.98;21.25;;;;;;;;;;5090036;28;20020;-75
2023/02/23 05:12:00;;;;;;;30.67;19.10;;;;;;;;;;5092404;28;20020;-76
2023/02/23 05:14:26;;;;;;;31.45;20.23;;;;;;;;;;5083768;28;20660;-76
2023/02/23 05:16:52;;;;;;;29.90;19.70;;;;;;;;;;5092704;28;20085;-75
2023/02/23 05:19:18;;;;;;;30.05;19.70;;;;;;;;;;5091054;28;20028;-75
2023/02/23 05:21:44;;;;;;;30.00;20.10;;;;;;;;;;5094014;28;20029;-74
2023/02/23 05:24:10;;;;;;;31.40;19.85;;;;;;;;;;5094516;28;20054;-76
2023/02/23 05:26:37;;;;;;;31.67;21.30;;;;;;;;;;5091827;28;20017;-76
2023/02/23 05:29:03;;;;;;;38.20;21.27;;;;;;;;;;5092307;28;20026;-74
2023/02/23 05:31:29;;;;;;;33.83;20.40;;;;;;;;;;5080622;28;20534;-75
2023/02/23 05:33:55;;;;;;;34.55;21.55;;;;;;;;;;5075177;28;20020;-75
2023/02/23 05:36:21;;;;;;;31.80;20.50;;;;;;;;;;5072803;28;20502;-76
2023/02/23 05:38:48;;;;;;;34.22;21.25;;;;;;;;;;5073949;28;20367;-74
2023/02/23 05:41:21;;;;;;;32.88;20.90;;;;;;;;;;5067018;28;20024;-75
2023/02/23 05:43:49;;;;;;;31.70;20.98;;;;;;;;;;5054882;28;20033;-74
2023/02/23 05:46:17;;;;;;;35.63;21.50;;;;;;;;;;5054607;28;20399;-75
2023/02/23 05:48:43;;;;;;;37.42;23.52;;;;;;;;;;5055149;28;20029;-75
2023/02/23 05:51:10;;;;;;;37.60;22.25;;;;;;;;;;5069703;28;20029;-76
2023/02/23 05:53:37;;;;;;;33.72;21.42;;;;;;;;;;5081738;28;20028;-76
2023/02/23 05:56:03;;;;;;;33.58;22.23;;;;;;;;;;5089359;28;20031;-75
2023/02/23 05:58:29;;;;;;;38.00;23.58;;;;;;;;;;5088289;28;20035;-75
2023/02/23 06:00:56;;;;;;;36.20;21.90;;;;;;;;;;5093844;28;20015;-76
2023/02/23 06:03:22;;;;;;;33.20;22.20;;;;;;;;;;5093930;28;20040;-76
2023/02/23 06:05:50;;;;;;;35.95;22.25;;;;;;;;;;5090279;28;20490;-76
2023/02/23 06:08:16;;;;;;;40.92;24.00;;;;;;;;;;5077468;28;20036;-75
2023/02/23 06:10:42;;;;;;;34.55;22.88;;;;;;;;;;5084092;28;20025;-76
2023/02/23 06:13:09;;;;;;;32.78;21.80;;;;;;;;;;5085231;28;20032;-75
2023/02/23 06:15:36;;;;;;;34.88;23.48;;;;;;;;;;5089830;28;20024;-76
2023/02/23 06:18:02;;;;;;;34.13;21.63;;;;;;;;;;5088840;28;20021;-76
2023/02/23 06:20:28;;;;;;;33.33;21.95;;;;;;;;;;5089605;28;20020;-75
2023/02/23 06:22:54;;;;;;;39.90;22.67;;;;;;;;;;5089017;28;20032;-75
2023/02/23 06:25:20;;;;;;;33.63;22.67;;;;;;;;;;5080649;28;20513;-76
2023/02/23 06:27:46;;;;;;;36.90;22.27;;;;;;;;;;5079326;28;20396;-76
2023/02/23 06:30:13;;;;;;;35.88;23.17;;;;;;;;;;5086760;28;20543;-74
2023/02/23 06:32:39;;;;;;;34.03;21.25;;;;;;;;;;5086183;28;20104;-75
2023/02/23 06:35:05;;;;;;;33.88;21.25;;;;;;;;;;5085110;28;20058;-74
2023/02/23 06:37:32;;;;;;;32.05;21.00;;;;;;;;;;5087280;28;20432;-75
2023/02/23 06:39:58;;;;;;;30.40;20.73;;;;;;;;;;5086652;28;20032;-75
2023/02/23 06:42:24;;;;;;;32.15;21.90;;;;;;;;;;5087534;28;20062;-76
2023/02/23 06:44:50;;;;;;;31.85;20.92;;;;;;;;;;5081250;28;20032;-76
2023/02/23 06:47:16;;;;;;;35.33;23.70;;;;;;;;;;5089575;28;20051;-75
2023/02/23 06:49:42;;;;;;;35.00;22.45;;;;;;;;;;5093924;28;20051;-75
2023/02/23 06:52:09;;;;;;;35.40;21.98;;;;;;;;;;5088498;28;20043;-75
2023/02/23 06:54:37;;;;;;;32.05;22.02;;;;;;;;;;5089451;28;20025;-75
2023/02/23 06:57:03;;;;;;;32.75;21.90;;;;;;;;;;5092640;28;20021;-74
2023/02/23 06:59:29;;;;;;;35.53;20.75;;;;;;;;;;5091479;28;20017;-74
2023/02/23 07:01:55;;;;;;;37.28;21.63;;;;;;;;;;5085457;28;20021;-77
2023/02/23 07:04:22;;;;;;;31.50;21.05;;;;;;;;;;5075891;28;20024;-75
2023/02/23 07:06:48;;;;;;;33.13;21.20;;;;;;;;;;5085214;22;20027;-78
2023/02/23 07:09:14;;;;;;;30.60;22.08;;;;;;;;;;5034285;28;20045;-77
2023/02/23 07:11:40;;;;;;;32.75;21.58;;;;;;;;;;5052688;28;20029;-77
2023/02/23 07:14:06;;;;;;;33.20;21.35;;;;;;;;;;5052527;28;20055;-77
2023/02/23 07:16:32;;;;;;;35.78;21.63;;;;;;;;;;5049532;28;20021;-78
2023/02/23 07:18:58;;;;;;;32.70;23.02;;;;;;;;;;5052036;28;20429;-79
2023/02/23 07:21:24;;;;;;;33.55;23.67;;;;;;;;;;5052588;28;20029;-78
2023/02/23 07:23:50;;;;;;;34.78;21.52;;;;;;;;;;5023174;28;20399;-78
2023/02/23 07:26:17;;;;;;;34.13;23.13;;;;;;;;;;5052442;28;20032;-77
2023/02/23 07:28:44;;;;;;;34.63;21.25;;;;;;;;;;5033643;28;20039;-78
2023/02/23 07:31:10;;;;;;;34.78;22.88;;;;;;;;;;5052272;28;20025;-80
2023/02/23 07:33:36;;;;;;;31.95;22.15;;;;;;;;;;5033463;28;20055;-77
2023/02/23 07:36:02;;;;;;;37.20;22.73;;;;;;;;;;5035127;28;20029;-77
2023/02/23 07:38:28;;;;;;;33.53;22.23;;;;;;;;;;5034029;28;20021;-78
2023/02/23 07:40:54;;;;;;;31.10;21.40;;;;;;;;;;5052770;28;20019;-78
2023/02/23 07:43:21;;;;;;;33.05;22.85;;;;;;;;;;5052448;28;20029;-78
2023/02/23 07:45:47;;;;;;;33.33;22.13;;;;;;;;;;5053608;28;20040;-79
2023/02/23 07:48:13;;;;;;;32.03;21.27;;;;;;;;;;5034830;28;20108;-79
2023/02/23 07:50:40;;;;;;;33.38;23.95;;;;;;;;;;5034657;28;20074;-79
2023/02/23 07:53:06;;;;;;;34.83;21.92;;;;;;;;;;5052863;28;20112;-80
2023/02/23 07:55:32;;;;;;;34.05;21.52;;;;;;;;;;5052323;28;20028;-81
2023/02/23 07:57:58;;;;;;;33.45;22.30;;;;;;;;;;5051919;28;20060;-81
2023/02/23 08:00:26;;;;;;;33.17;21.70;;;;;;;;;;5051556;28;20048;-82
2023/02/23 08:02:52;;;;;;;35.40;21.80;;;;;;;;;;5034885;28;20051;-78
2023/02/23 08:05:18;;;;;;;34.58;21.95;;;;;;;;;;5052246;28;20594;-79
2023/02/23 08:07:44;;;;;;;34.47;20.98;;;;;;;;;;5052497;28;20033;-79
2023/02/23 08:10:11;;;;;;;33.35;21.63;;;;;;;;;;5054568;28;20048;-80
2023/02/23 08:12:37;;;;;;;29.40;20.85;;;;;;;;;;5053270;28;20463;-76
2023/02/23 08:15:07;;;;;;;38.22;22.45;;;;;;;;;;5033683;28;20025;-79
2023/02/23 08:17:33;;;;;;;40.55;23.27;;;;;;;;;;5050300;28;20021;-77
2023/02/23 08:19:59;;;;;;;34.88;23.58;;;;;;;;;;5052590;28;20320;-79
2023/02/23 08:22:25;;;;;;;36.47;23.60;;;;;;;;;;5048364;28;20033;-77
2023/02/23 08:24:51;;;;;;;31.50;21.85;;;;;;;;;;5047741;28;20522;-78
2023/02/23 08:27:17;;;;;;;35.13;22.63;;;;;;;;;;5037108;28;20029;-78
2023/02/23 08:29:43;;;;;;;31.58;21.35;;;;;;;;;;5036141;28;20392;-78
2023/02/23 08:32:09;;;;;;;34.42;22.65;;;;;;;;;;5040360;28;20036;-76
2023/02/23 08:34:43;;;;;;;34.95;22.20;;;;;;;;;;5034742;28;20299;-78
2023/02/23 08:37:09;;;;;;;31.40;21.48;;;;;;;;;;5030687;28;20032;-77
2023/02/23 08:39:35;;;;;;;31.15;21.85;;;;;;;;;;5031629;28;20443;-77
2023/02/23 08:42:01;;;;;;;32.60;22.42;;;;;;;;;;5045146;28;20087;-77
2023/02/23 08:44:27;;;;;;;30.52;21.77;;;;;;;;;;5049355;28;20079;-78
2023/02/23 08:46:54;;;;;;;31.63;22.05;;;;;;;;;;5050943;28;20507;-77
2023/02/23 08:49:20;;;;;;;32.00;21.83;;;;;;;;;;5032560;28;20025;-77
2023/02/23 08:51:46;;;;;;;35.47;23.13;;;;;;;;;;5050748;28;20037;-77
2023/02/23 08:54:15;;;;;;;33.30;21.52;;;;;;;;;;5032225;28;20025;-77
2023/02/23 08:56:41;;;;;;;42.42;23.58;;;;;;;;;;5051127;28;20563;-77
2023/02/23 08:59:07;;;;;;;30.38;21.65;;;;;;;;;;5032739;28;20361;-78
2023/02/23 09:01:34;;;;;;;33.15;21.52;;;;;;;;;;5051332;28;20475;-78
2023/02/23 09:04:00;;;;;;;30.90;22.02;;;;;;;;;;5033505;28;20025;-77
2023/02/23 09:06:26;;;;;;;36.72;22.67;;;;;;;;;;5051089;28;20127;-79
2023/02/23 09:08:54;;;;;;;31.70;22.55;;;;;;;;;;5050947;28;20563;-78
2023/02/23 09:11:20;;;;;;;29.98;21.58;;;;;;;;;;5052547;28;20044;-78
2023/02/23 09:13:46;;;;;;;31.92;21.27;;;;;;;;;;5051799;28;20029;-79
2023/02/23 09:16:12;;;;;;;31.17;22.40;;;;;;;;;;5050960;28;20017;-77
2023/02/23 09:18:38;;;;;;;32.28;22.13;;;;;;;;;;5051028;28;20053;-78
2023/02/23 09:21:06;;;;;;;37.92;23.70;;;;;;;;;;5033613;28;20025;-78
2023/02/23 09:23:33;;;;;;;31.52;21.45;;;;;;;;;;5052849;28;20084;-79
2023/02/23 09:26:02;;;;;;;30.42;21.30;;;;;;;;;;5058570;28;20021;-81
2023/02/23 09:28:29;;;;;;;37.42;22.33;;;;;;;;;;5063175;28;20025;-78
2023/02/23 09:30:56;;;;;;;30.40;21.50;;;;;;;;;;5065237;28;20471;-80
2023/02/23 09:33:22;;;;;;;30.10;20.73;;;;;;;;;;5042408;28;20033;-79
2023/02/23 09:35:48;;;;;;;28.60;19.90;;;;;;;;;;5032840;28;20047;-78
2023/02/23 09:38:14;;;;;;;26.33;19.58;;;;;;;;;;5032465;28;20035;-79
2023/02/23 09:40:52;;;;;;;29.88;19.95;;;;;;;;;;5050664;28;20025;-77
2023/02/23 09:43:30;;;;;;;28.20;19.92;;;;;;;;;;5050556;28;20620;-79
2023/02/23 09:45:59;;;;;;;25.30;18.33;;;;;;;;;;5035386;28;20514;-75
2023/02/23 09:48:26;;;;;;;25.50;18.30;;;;;;;;;;5045347;28;20551;-78
2023/02/23 09:50:53;;;;;;;26.90;18.98;;;;;;;;;;5037019;28;20506;-76
2023/02/23 09:53:20;;;;;;;27.77;19.20;;;;;;;;;;5031869;28;20458;-77
2023/02/23 09:55:47;;;;;;;24.50;18.33;;;;;;;;;;5051414;28;20471;-79
2023/02/23 09:58:22;;;;;;;27.92;19.10;;;;;;;;;;5053388;28;20028;-78
2023/02/23 10:00:54;;;;;;;25.38;18.33;;;;;;;;;;5054496;28;20066;-75
2023/02/23 10:03:27;;;;;;;23.90;17.58;;;;;;;;;;5057045;28;20425;-78
2023/02/23 10:05:57;;;;;;;27.50;18.92;;;;;;;;;;5056870;28;20125;-77
2023/02/23 10:08:38;;;;;;;30.77;18.37;;;;;;;;;;5053949;28;20556;-78
2023/02/23 10:11:10;;;;;;;24.85;17.80;;;;;;;;;;5055173;28;20028;-80
2023/02/23 10:13:43;;;;;;;26.25;18.45;;;;;;;;;;5054180;28;20036;-78
2023/02/23 10:16:29;;;;;;;22.60;16.88;;;;;;;;;;5054077;28;20024;-77
2023/02/23 10:18:55;;;;;;;25.13;17.83;;;;;;;;;;5053300;28;20086;-77
2023/02/23 10:21:28;;;;;;;24.30;18.60;;;;;;;;;;5053454;28;20099;-77
2023/02/23 10:23:59;;;;;;;23.80;16.63;;;;;;;;;;5053289;28;20036;-77
2023/02/23 10:26:26;;;;;;;23.42;16.67;;;;;;;;;;5053337;28;20031;-77
2023/02/23 10:28:55;;;;;;;28.50;18.05;;;;;;;;;;5052890;28;20479;-80
2023/02/23 10:31:20;;;;;;;24.58;16.55;;;;;;;;;;5053573;28;20025;-79
2023/02/23 10:33:47;;;;;;;25.42;17.08;;;;;;;;;;5053465;28;20067;-79
2023/02/23 10:36:18;;;;;;;21.92;16.65;;;;;;;;;;5035286;28;20021;-78
2023/02/23 10:38:44;;;;;;;24.02;16.83;;;;;;;;;;5052388;28;20053;-77
2023/02/23 10:41:11;;;;;;;24.35;17.63;;;;;;;;;;5053439;28;20071;-77
2023/02/23 10:43:37;;;;;;;22.20;17.25;;;;;;;;;;5052949;28;20029;-79
2023/02/23 10:46:05;;;;;;;23.38;16.50;;;;;;;;;;5036276;28;20107;-77
2023/02/23 10:48:33;;;;;;;33.90;18.40;;;;;;;;;;5052048;28;20021;-80
2023/02/23 10:51:04;;;;;;;22.67;16.75;;;;;;;;;;5053259;28;20462;-77
2023/02/23 10:53:35;;;;;;;26.77;16.33;;;;;;;;;;5053121;28;20048;-78
2023/02/23 10:56:10;;;;;;;22.27;17.43;;;;;;;;;;5053895;28;20035;-77
2023/02/23 10:58:40;;;;;;;24.17;16.13;;;;;;;;;;5052466;28;20036;-78
2023/02/23 11:01:06;;;;;;;25.40;17.65;;;;;;;;;;5035033;28;20025;-78
2023/02/23 11:03:32;;;;;;;25.23;17.77;;;;;;;;;;5052755;28;20036;-78
2023/02/23 11:05:58;;;;;;;22.25;15.93;;;;;;;;;;5052884;28;20059;-78
2023/02/23 11:08:30;;;;;;;21.75;16.30;;;;;;;;;;5051379;28;20474;-79
2023/02/23 11:11:17;;;;;;;23.20;15.63;;;;;;;;;;5051291;28;20032;-79
2023/02/23 11:13:52;;;;;;;23.17;16.17;;;;;;;;;;5052569;28;20044;-79
2023/02/23 11:16:26;;;;;;;20.75;14.38;;;;;;;;;;5045274;28;20049;-79
2023/02/23 11:18:57;;;;;;;20.83;14.80;;;;;;;;;;5031276;28;20029;-80
2023/02/23 11:21:23;;;;;;;24.35;15.55;;;;;;;;;;5032691;28;20025;-79
2023/02/23 11:23:51;;;;;;;20.42;14.68;;;;;;;;;;5033673;28;20034;-78
2023/02/23 11:26:21;;;;;;;19.02;13.90;;;;;;;;;;5033458;28;20462;-78
2023/02/23 11:28:50;;;;;;;22.13;14.35;;;;;;;;;;5033182;28;20434;-78
2023/02/23 11:31:21;;;;;;;20.08;15.05;;;;;;;;;;5052057;28;20104;-80
2023/02/23 11:33:47;;;;;;;21.77;14.77;;;;;;;;;;5052615;28;20055;-78
2023/02/23 11:36:13;;;;;;;21.40;14.38;;;;;;;;;;5053353;28;20251;-79
2023/02/23 11:38:39;;;;;;;17.83;13.48;;;;;;;;;;5050070;28;20032;-79
2023/02/23 11:41:06;;;;;;;16.83;13.63;;;;;;;;;;5050298;28;20029;-78
2023/02/23 11:43:32;;;;;;;18.63;12.98;;;;;;;;;;5041497;28;20029;-78
2023/02/23 11:46:00;;;;;;;20.20;13.95;;;;;;;;;;5039988;28;20029;-79
2023/02/23 11:48:33;;;;;;;19.90;13.90;;;;;;;;;;5034810;28;20026;-78
2023/02/23 11:51:00;;;;;;;19.63;14.60;;;;;;;;;;5031068;28;20104;-78
2023/02/23 11:53:30;;;;;;;19.80;14.10;;;;;;;;;;5032773;28;20021;-78
2023/02/23 11:55:58;;;;;;;23.13;15.20;;;;;;;;;;5033217;28;20022;-78
2023/02/23 11:58:38;;;;;;;19.52;12.40;;;;;;;;;;5032450;28;20076;-76
2023/02/23 12:01:11;;;;;;;16.25;12.85;;;;;;;;;;5033589;28;20022;-78
2023/02/23 12:03:40;;;;;;;17.13;12.68;;;;;;;;;;5032379;28;20325;-78
2023/02/23 12:06:06;;;;;;;17.02;13.40;;;;;;;;;;5032242;28;20033;-79
2023/02/23 12:08:52;;;;;;;21.02;12.80;;;;;;;;;;5031700;28;20029;-78
2023/02/23 12:11:21;;;;;;;15.23;11.75;;;;;;;;;;5032068;28;20033;-78
2023/02/23 12:13:49;;;;;;;17.60;13.27;;;;;;;;;;5032453;28;20028;-79
2023/02/23 12:16:18;;;;;;;17.30;13.45;;;;;;;;;;5031912;28;20079;-78
2023/02/23 12:18:52;;;;;;;18.52;13.98;;;;;;;;;;5032572;28;20033;-79
2023/02/23 12:21:18;;;;;;;19.25;13.00;;;;;;;;;;5035166;28;20026;-79
2023/02/23 12:23:45;;;;;;;18.90;13.98;;;;;;;;;;5015417;28;20076;-78
2023/02/23 12:26:16;;;;;;;20.27;14.15;;;;;;;;;;5032787;28;20032;-78
2023/02/23 12:29:01;;;;;;;17.58;13.25;;;;;;;;;;5031126;28;20025;-79
2023/02/23 12:31:30;;;;;;;17.58;13.15;;;;;;;;;;5032877;28;20517;-78
2023/02/23 12:34:02;;;;;;;18.60;14.25;;;;;;;;;;5031556;28;20029;-78
2023/02/23 12:36:42;;;;;;;19.60;12.45;;;;;;;;;;5032134;28;20439;-78
2023/02/23 12:39:18;;;;;;;19.25;13.50;;;;;;;;;;5031028;28;20018;-76
2023/02/23 12:42:02;;;;;;;17.13;13.32;;;;;;;;;;5032012;28;20097;-77
2023/02/23 12:44:51;;;;;;;19.20;13.45;;;;;;;;;;5032348;28;20036;-77
2023/02/23 12:47:20;;;;;;;17.83;13.77;;;;;;;;;;5030865;28;20060;-78
2023/02/23 12:49:52;;;;;;;19.15;13.90;;;;;;;;;;5031003;28;20029;-79
2023/02/23 12:52:24;;;;;;;22.23;13.77;;;;;;;;;;5032810;28;20034;-79
2023/02/23 12:54:51;;;;;;;22.20;14.10;;;;;;;;;;5045109;28;20032;-79
2023/02/23 12:57:18;;;;;;;19.83;13.38;;;;;;;;;;5048982;28;20037;-78
2023/02/23 12:59:45;;;;;;;16.98;12.20;;;;;;;;;;5050143;28;20036;-77
2023/02/23 13:02:21;;;;;;;21.83;14.05;;;;;;;;;;5050799;28;20017;-78
2023/02/23 13:05:06;;;;;;;18.67;12.93;;;;;;;;;;5049406;28;20491;-79
2023/02/23 13:07:33;;;;;;;20.48;13.32;;;;;;;;;;5042641;28;20100;-79
2023/02/23 13:10:02;;;;;;;20.05;12.90;;;;;;;;;;5049608;28;20451;-78
2023/02/23 13:12:31;;;;;;;21.15;13.15;;;;;;;;;;5049719;28;20059;-77
2023/02/23 13:15:07;;;;;;;16.55;12.40;;;;;;;;;;5050643;28;20027;-77
2023/02/23 13:17:51;;;;;;;15.77;12.73;;;;;;;;;;5049818;28;20095;-78
2023/02/23 13:20:21;;;;;;;17.52;13.05;;;;;;;;;;5048985;28;20020;-77
2023/02/23 13:22:51;;;;;;;18.23;12.43;;;;;;;;;;5050135;28;20479;-77
2023/02/23 13:25:17;;;;;;;18.35;12.27;;;;;;;;;;5051043;28;20033;-78
2023/02/23 13:27:50;;;;;;;19.13;12.93;;;;;;;;;;5050223;28;20457;-76
2023/02/23 13:30:19;;;;;;;21.27;12.98;;;;;;;;;;5054830;28;20032;-77
2023/02/23 13:32:45;;;;;;;18.10;11.70;;;;;;;;;;5054735;28;20025;-77
2023/02/23 13:35:16;;;;;;;17.33;12.52;;;;;;;;;;5054908;28;20024;-77
2023/02/23 13:37:49;;;;;;;20.50;12.70;;;;;;;;;;5054246;28;20521;-78
2023/02/23 13:40:21;;;;;;;18.27;12.43;;;;;;;;;;5054858;28;20029;-78
2023/02/23 13:43:00;;;;;;;17.92;12.43;;;;;;;;;;5054447;28;20052;-79
2023/02/23 13:45:45;;;;;;;19.20;13.10;;;;;;;;;;5054696;28;20100;-78
2023/02/23 13:48:26;;;;;;;18.55;13.27;;;;;;;;;;5053781;28;20029;-78
2023/02/23 13:51:03;;;;;;;17.15;12.95;;;;;;;;;;5054713;28;20428;-78
2023/02/23 13:53:35;;;;;;;32.28;14.57;;;;;;;;;;5054494;28;20029;-78
2023/02/23 13:56:07;;;;;;;17.70;12.82;;;;;;;;;;5054314;28;20028;-77
2023/02/23 13:58:33;;;;;;;16.95;12.90;;;;;;;;;;5051898;28;20028;-78
2023/02/23 14:01:08;;;;;;;17.55;12.02;;;;;;;;;;5034935;28;20021;-77
2023/02/23 14:03:39;;;;;;;18.75;12.77;;;;;;;;;;5052646;28;20426;-79
2023/02/23 14:06:06;;;;;;;23.15;14.05;;;;;;;;;;5052447;28;20029;-79
2023/02/23 14:08:34;;;;;;;18.80;13.90;;;;;;;;;;5052126;28;20036;-79
2023/02/23 14:11:01;;;;;;;18.70;13.20;;;;;;;;;;5053158;28;20048;-80
2023/02/23 14:13:26;;;;;;;19.50;13.68;;;;;;;;;;5018793;28;20029;-78
2023/02/23 14:16:11;;;;;;;20.75;13.68;;;;;;;;;;5054490;28;20021;-79
2023/02/23 14:19:04;;;;;;;17.52;12.98;;;;;;;;;;5053568;28;20025;-78
2023/02/23 14:21:42;;;;;;;20.90;12.65;;;;;;;;;;5051400;28;20029;-77
2023/02/23 14:24:19;;;;;;;22.25;14.07;;;;;;;;;;5055526;28;20029;-78
2023/02/23 14:27:07;;;;;;;21.88;13.65;;;;;;;;;;5054634;28;20052;-79
2023/02/23 14:29:40;;;;;;;20.20;13.63;;;;;;;;;;5055676;28;20017;-79
2023/02/23 14:32:12;;;;;;;17.23;13.00;;;;;;;;;;5054923;28;20026;-79
2023/02/23 14:34:45;;;;;;;20.38;13.45;;;;;;;;;;5054138;28;20139;-77
2023/02/23 14:37:24;;;;;;;20.05;12.93;;;;;;;;;;5053334;28;20040;-78
2023/02/23 14:39:51;;;;;;;16.58;12.95;;;;;;;;;;5053695;28;20487;-78
2023/02/23 14:42:28;;;;;;;20.33;13.98;;;;;;;;;;5054281;28;20079;-79
2023/02/23 14:44:55;;;;;;;17.33;13.38;;;;;;;;;;5054514;28;20029;-77
2023/02/23 15:10:09;;;;;;;44.92;32.22;;;;;;;;;;5168840;22;20114;-79
2023/02/23 15:22:04;;;;;;;62.08;37.78;;;;;;;;;;5050310;22;20135;-74
2023/02/23 15:24:31;;;;;;;75.57;42.67;;;;;;;;;;5066084;28;20079;-75
2023/02/23 15:26:57;;;;;;;74.30;42.65;;;;;;;;;;5050357;28;20033;-74
2023/02/23 15:29:31;;;;;;;70.18;41.03;;;;;;;;;;5049898;28;20035;-74
2023/02/23 15:32:09;;;;;;;77.45;43.00;;;;;;;;;;5050293;28;20060;-72
2023/02/23 15:34:35;;;;;;;71.97;41.05;;;;;;;;;;5050440;28;20048;-75
2023/02/23 15:37:12;;;;;;;65.43;41.88;;;;;;;;;;5050865;28;20040;-74
2023/02/23 15:39:52;;;;;;;65.43;41.60;;;;;;;;;;5052059;28;20017;-74
2023/02/23 15:42:18;;;;;;;67.95;40.38;;;;;;;;;;5051805;28;20143;-75
2023/02/23 15:44:45;;;;;;;70.45;40.65;;;;;;;;;;5052003;28;20463;-74
2023/02/23 15:47:34;;;;;;;67.80;40.90;;;;;;;;;;5059189;28;20104;-74
2023/02/23 15:50:04;;;;;;;74.88;42.75;;;;;;;;;;5047884;28;20036;-75
2023/02/23 15:52:33;;;;;;;76.68;42.97;;;;;;;;;;5066342;28;20028;-75
2023/02/23 15:55:07;;;;;;;87.57;47.20;;;;;;;;;;5060660;28;20027;-74
2023/02/23 15:57:43;;;;;;;78.78;44.75;;;;;;;;;;5070301;28;20095;-74
2023/02/23 16:00:38;;;;;;;95.35;47.13;;;;;;;;;;5071898;28;20028;-75
2023/02/23 16:03:05;;;;;;;84.93;45.00;;;;;;;;;;5062481;28;20517;-75
2023/02/23 16:05:41;;;;;;;92.45;50.30;;;;;;;;;;5071751;28;20119;-76
2023/02/23 16:08:23;;;;;;;94.32;50.75;;;;;;;;;;5069644;28;20056;-74
2023/02/23 16:10:49;;;;;;;101.07;52.50;;;;;;;;;;5071564;28;20055;-76
2023/02/23 16:13:19;;;;;;;84.25;49.58;;;;;;;;;;5071459;28;20056;-75
2023/02/23 16:15:45;;;;;;;93.43;50.55;;;;;;;;;;5071524;28;20078;-75
2023/02/23 16:18:16;;;;;;;88.18;49.28;;;;;;;;;;5070277;28;20025;-75
2023/02/23 16:20:45;;;;;;;105.53;53.15;;;;;;;;;;5071169;28;20119;-75
2023/02/23 16:23:21;;;;;;;105.32;51.33;;;;;;;;;;5071364;28;20142;-74